Αναφορές Αεροδρομίων

 

KSJC - San Jose, California, USA
Distance from station: ΒΑ 14km
Ενημερώθηκε: 23/05/2024 10:53
Αίθριος
Αίθριος
 Ανεμος από calm
Ανεμος: Απνοια
Θερμοκρασία: 13°C
Σημείο Δρόσου: 7°C
Υγρασία: 67%
Βαρόμετρο: 1013.2 hPa
Clouds: Αίθριος
Visibility: 14 km
2024/05/23 07:53 KSJC 230753Z AUTO 00000KT 9SM CLR 13/07 A2992 RMK AO2 SLP132 T01330072 402560122
KNUQ - Moffett Nas/Mtn, California, USA
Distance from station: Β 14km
Ενημερώθηκε: 23/05/2024 11:15
Haze, Αίθριος
Haze, Αίθριος
 Ανεμος από calm
Ανεμος: Απνοια
Θερμοκρασία: 13°C
Σημείο Δρόσου: 8°C
Υγρασία: 72%
Βαρόμετρο: 1013.2 hPa
Περίληψη: Haze
Clouds: Αίθριος
Visibility: 10 km
2024/05/23 08:15 KNUQ 230815Z AUTO 00000KT 6SM HZ CLR 13/08 A2992 RMK AO2
 
KPAO - Palo Alto, California, USA
Distance from station: ΒΒΔ 23km
Ενημερώθηκε: 23/05/2024 06:47
NOT Current
Αίθριος
Αίθριος
 Ανεμος από ΒΔ
Ανεμος: ΒΔ 13 km/h
Θερμοκρασία: 14°C
Σημείο Δρόσου: 6°C
Υγρασία: 59%
Βαρόμετρο: 1013.5 hPa
Clouds: Αίθριος
Visibility: 16 km
2024/05/23 03:47 KPAO 230347Z 31007KT 10SM SKC 14/06 A2993 RMK LAST
KRHV - San Jose/Reid, California, USA
Distance from station: ΑΒΑ 19km
Ενημερώθηκε: 23/05/2024 07:47
NOT Current
Αίθριος
Αίθριος
 Ανεμος από ΒΒΔ
Ανεμος: ΒΒΔ 9 km/h
Θερμοκρασία: 15°C
Σημείο Δρόσου: 8°C
Υγρασία: 63%
Βαρόμετρο: 1014.2 hPa
Clouds: Αίθριος
Visibility: 16 km
2024/05/23 04:47 KRHV 230447Z 33005KT 10SM SKC 15/08 A2995 RMK LAST
 
KOAK - Oakland, California, USA
Distance from station: ΒΒΔ 50km
Ενημερώθηκε: 23/05/2024 10:53
Αίθριος
Αίθριος
 Ανεμος από ΝΝΔ
Ανεμος: ΝΝΔ 13 km/h
Θερμοκρασία: 13°C
Σημείο Δρόσου: 9°C
Υγρασία: 77%
Βαρόμετρο: 1013.2 hPa
Clouds: Αίθριος
Visibility: 16 km
2024/05/23 07:53 KOAK 230753Z 21007KT 10SM CLR 13/09 A2992 RMK AO2 SLP133 T01280089 402000106
KSQL - San Carlos Airpo, California, USA
Distance from station: ΒΔ 34km
Ενημερώθηκε: 23/05/2024 11:15
Αίθριος
Αίθριος
 Ανεμος από calm
Ανεμος: Απνοια
Θερμοκρασία: 13°C
Σημείο Δρόσου: 5°C
Υγρασία: 59%
Βαρόμετρο: 1013.9 hPa
Clouds: Αίθριος
Visibility: 11 km
2024/05/23 08:15 KSQL 230815Z AUTO 00000KT 7SM CLR 13/05 A2994 RMK AO2
 
KSFO - San Francisco, California, USA
Distance from station: ΒΔ 49km
Ενημερώθηκε: 23/05/2024 10:56
Αίθριος
Αίθριος
 Ανεμος από Δ
Ανεμος: Δ 30 km/h
Θερμοκρασία: 12°C
Σημείο Δρόσου: 7°C
Υγρασία: 72%
Βαρόμετρο: 1013.5 hPa
Clouds: Αίθριος
Visibility: 16 km
2024/05/23 07:56 KSFO 230756Z 27016KT 10SM CLR 12/07 A2993 RMK AO2 SLP134 T01220072 402000122 $
KE16 - San Martin, California, USA
Distance from station: ΑΝΑ 43km
Ενημερώθηκε: 23/05/2024 10:55
Mist, Few clouds
Mist, Few clouds
 Ανεμος από ΝΑ
Ανεμος: ΝΑ 17 km/h
Θερμοκρασία: 10°C
Wind Chill: 8°C
Σημείο Δρόσου: 9°C
Υγρασία: 94%
Βαρόμετρο: 1014.6 hPa
Περίληψη: Mist
Clouds: Few Clouds
Visibility: 10 km
Cloud details: Few Clouds 488 m
2024/05/23 07:55 KE16 230755Z AUTO 13009KT 6SM BR FEW016 10/09 A2996 RMK AO2 PWINO PNO
 
KWVI - Watsonville, California, USA
Distance from station: ΝΝΑ 44km
Ενημερώθηκε: 23/05/2024 10:53
Συννεφιά
Συννεφιά
 Ανεμος από Α
Ανεμος: Α 13 km/h
Θερμοκρασία: 12°C
Σημείο Δρόσου: 9°C
Υγρασία: 82%
Βαρόμετρο: 1014.6 hPa
Clouds: Συννεφιά
Visibility: 14 km
Cloud details: Συννεφιά 244 m
2024/05/23 07:53 KWVI 230753Z AUTO 09007KT 9SM OVC008 12/09 A2996 RMK AO2 SLP143 T01170089 401780106
KHAF - Half Moon Bay, California, USA
Distance from station: ΔΒΔ 50km
Ενημερώθηκε: 23/05/2024 11:15
Mist, Συννεφιά
Mist, Συννεφιά
 Ανεμος από Β
Ανεμος: Β 7 km/h
Θερμοκρασία: 10°C
Wind Chill: 9°C
Σημείο Δρόσου: 9°C
Υγρασία: 94%
Βαρόμετρο: 1014.2 hPa
Περίληψη: Mist
Clouds: Συννεφιά
Visibility: 6 km
Cloud details: Συννεφιά 488 m
2024/05/23 08:15 KHAF 230815Z AUTO 35004KT 4SM BR OVC016 10/09 A2995 RMK AO2
 
KHWD - Hayward, California, USA
Distance from station: Β 44km
Ενημερώθηκε: 23/05/2024 10:54
Αίθριος
Αίθριος
 Ανεμος από ΔΝΔ
Ανεμος: ΔΝΔ 15 km/h
Θερμοκρασία: 14°C
Σημείο Δρόσου: 8°C
Υγρασία: 67%
Βαρόμετρο: 1013.5 hPa
Clouds: Αίθριος
Visibility: 14 km
2024/05/23 07:54 KHWD 230754Z AUTO 24008KT 9SM CLR 14/08 A2993 RMK AO2 SLP143 T01390078 402170128
KLVK - Livermore, California, USA
Distance from station: ΒΒΑ 51km
Ενημερώθηκε: 23/05/2024 10:53
Αίθριος
Αίθριος
 Ανεμος από ΔΒΔ
Ανεμος: ΔΒΔ 7 km/h
Θερμοκρασία: 11°C
Σημείο Δρόσου: 7°C
Υγρασία: 77%
Βαρόμετρο: 1012.9 hPa
Clouds: Αίθριος
Visibility: 11 km
2024/05/23 07:53 KLVK 230753Z AUTO 29004KT 7SM CLR 11/07 A2991 RMK AO2 SLP124 T01110072 402670111